Damian Wise — WDE9912 — position and weather

sailwx.info

Track history (hours):
 
Tides and Currents Weather Stations Pressure Air Temp Water Temp Dewpoint Dewpoint Depression Visibility Wind Speed Wind Dir Waves Ship Positions

Damian Wise

Owner: GNOTS-RESERVE, INC, DESTREHAN, LA. More information available from US FCC via Universal Licensing System and Coast Guard Vessel Documentation Center.

Last reported at 2014-Oct-21 11:22 UTC. Time now 2014-Oct-22 23:57 UTC.
Position N 29°56' W 090°20'.

; draft 2.9 m.

Type: Towing. MMSI: 367422770.

Date/timePositionNaut miles runAvg speedWind from/ knotsBaromVisibWave heightAir tempDewpointWater temp
2014-Oct-21 11:22N 29°56' W 090°20'1 0.7
2014-Oct-21 10:32N 29°56' W 090°21'1 0.4
2014-Oct-21 09:12N 29°56' W 090°20'0 0.0
2014-Oct-21 05:33N 29°56' W 090°20'0 0.0
2014-Oct-20 11:29N 29°56' W 090°20'0 0.0
2014-Oct-19 05:32N 29°56' W 090°20'0 0.0
2014-Oct-17 07:21N 29°56' W 090°20'1 0.0
2014-Oct-15 11:31N 29°56' W 090°20'2 1.5
2014-Oct-15 10:24N 29°56' W 090°22'1 1.3
2014-Oct-15 09:29N 29°56' W 090°20'1 0.6
2014-Oct-15 07:32N 29°56' W 090°22'1 0.0
2014-Oct-13 12:29N 29°56' W 090°22'0 0.2
2014-Oct-13 11:33N 29°56' W 090°22'2 1.9
2014-Oct-13 10:33N 29°56' W 090°20'0 0.2
2014-Oct-13 09:30N 29°56' W 090°20'0 0.0
2014-Oct-13 08:32N 29°56' W 090°20'0 0.2
2014-Oct-13 07:34N 29°56' W 090°20'0 0.2
2014-Oct-13 06:33N 29°56' W 090°20'0 0.1
2014-Oct-13 05:33N 29°56' W 090°20'0 0.3
2014-Oct-13 04:28N 29°56' W 090°20'0 0.3
2014-Oct-13 03:30N 29°56' W 090°20'2 1.7
2014-Oct-13 02:33N 29°56' W 090°22'0 0.1
2014-Oct-13 01:33N 29°56' W 090°22'2 1.9
2014-Oct-13 00:22N 29°56' W 090°19'0 0.1
2014-Oct-12 23:33N 29°56' W 090°19'0 0.1
2014-Oct-12 22:33N 29°56' W 090°20'0 0.2
2014-Oct-12 21:34N 29°56' W 090°19'1 0.2
2014-Oct-12 17:26N 29°56' W 090°20'0 0.0
2014-Oct-12 15:32N 29°56' W 090°20'0 0.1
2014-Oct-12 14:32N 29°56' W 090°21'0 0.0
2014-Oct-12 08:33N 29°56' W 090°20'0 0.0
2014-Oct-12 05:13N 29°56' W 090°21'1 0.8
2014-Oct-12 04:11N 29°56' W 090°20'1 0.9
2014-Oct-12 03:33N 29°56' W 090°20'2 0.7
2014-Oct-12 01:20N 29°56' W 090°22'2 1.7
2014-Oct-12 00:24N 29°56' W 090°20'0 0.4
2014-Oct-11 23:31N 29°56' W 090°20'0 0.0
2014-Oct-11 22:21N 29°56' W 090°20'0 0.3
2014-Oct-11 21:30N 29°56' W 090°20'0 0.3
2014-Oct-11 20:18N 29°56' W 090°21'0 0.1
2014-Oct-11 19:33N 29°56' W 090°20'1 0.6
2014-Oct-11 18:33N 29°56' W 090°20'0 0.0
2014-Oct-11 17:31N 29°56' W 090°20'0 0.0
2014-Oct-11 16:33N 29°56' W 090°20'0 0.1
2014-Oct-11 12:08N 29°56' W 090°20'0 0.4
2014-Oct-11 11:27N 29°56' W 090°20'  
Track history (hours):
 
Tides and Currents Weather Stations Pressure Air Temp Water Temp Dewpoint Dewpoint Depression Visibility Wind Speed Wind Dir Waves Ship Positions

Damian Wise

Owner: GNOTS-RESERVE, INC, DESTREHAN, LA. More information available from US FCC via Universal Licensing System and Coast Guard Vessel Documentation Center.

Last reported at 2014-Oct-21 11:22 UTC. Time now 2014-Oct-22 23:57 UTC.
Position N 29°56' W 090°20'.

; draft 2.9 m.

Type: Towing. MMSI: 367422770.

Date/timePositionNaut miles runAvg speedWind from/ knotsBaromVisibWave heightAir tempDewpointWater temp
2014-Oct-21 11:22N 29°56' W 090°20'1 0.7
2014-Oct-21 10:32N 29°56' W 090°21'1 0.4
2014-Oct-21 09:12N 29°56' W 090°20'0 0.0
2014-Oct-21 05:33N 29°56' W 090°20'0 0.0
2014-Oct-20 11:29N 29°56' W 090°20'0 0.0
2014-Oct-19 05:32N 29°56' W 090°20'0 0.0
2014-Oct-17 07:21N 29°56' W 090°20'1 0.0
2014-Oct-15 11:31N 29°56' W 090°20'2 1.5
2014-Oct-15 10:24N 29°56' W 090°22'1 1.3
2014-Oct-15 09:29N 29°56' W 090°20'1 0.6
2014-Oct-15 07:32N 29°56' W 090°22'1 0.0
2014-Oct-13 12:29N 29°56' W 090°22'0 0.2
2014-Oct-13 11:33N 29°56' W 090°22'2 1.9
2014-Oct-13 10:33N 29°56' W 090°20'0 0.2
2014-Oct-13 09:30N 29°56' W 090°20'0 0.0
2014-Oct-13 08:32N 29°56' W 090°20'0 0.2
2014-Oct-13 07:34N 29°56' W 090°20'0 0.2
2014-Oct-13 06:33N 29°56' W 090°20'0 0.1
2014-Oct-13 05:33N 29°56' W 090°20'0 0.3
2014-Oct-13 04:28N 29°56' W 090°20'0 0.3
2014-Oct-13 03:30N 29°56' W 090°20'2 1.7
2014-Oct-13 02:33N 29°56' W 090°22'0 0.1
2014-Oct-13 01:33N 29°56' W 090°22'2 1.9
2014-Oct-13 00:22N 29°56' W 090°19'0 0.1
2014-Oct-12 23:33N 29°56' W 090°19'0 0.1
2014-Oct-12 22:33N 29°56' W 090°20'0 0.2
2014-Oct-12 21:34N 29°56' W 090°19'1 0.2
2014-Oct-12 17:26N 29°56' W 090°20'0 0.0
2014-Oct-12 15:32N 29°56' W 090°20'0 0.1
2014-Oct-12 14:32N 29°56' W 090°21'0 0.0
2014-Oct-12 08:33N 29°56' W 090°20'0 0.0
2014-Oct-12 05:13N 29°56' W 090°21'1 0.8
2014-Oct-12 04:11N 29°56' W 090°20'1 0.9
2014-Oct-12 03:33N 29°56' W 090°20'2 0.7
2014-Oct-12 01:20N 29°56' W 090°22'2 1.7
2014-Oct-12 00:24N 29°56' W 090°20'0 0.4
2014-Oct-11 23:31N 29°56' W 090°20'0 0.0
2014-Oct-11 22:21N 29°56' W 090°20'0 0.3
2014-Oct-11 21:30N 29°56' W 090°20'0 0.3
2014-Oct-11 20:18N 29°56' W 090°21'0 0.1
2014-Oct-11 19:33N 29°56' W 090°20'1 0.6
2014-Oct-11 18:33N 29°56' W 090°20'0 0.0
2014-Oct-11 17:31N 29°56' W 090°20'0 0.0
2014-Oct-11 16:33N 29°56' W 090°20'0 0.1
2014-Oct-11 12:08N 29°56' W 090°20'0 0.4
2014-Oct-11 11:27N 29°56' W 090°20'  

Dump ship's entire track history